Main page
METAR-TAF:

METAR-TAF

Airports :

Wiener Neustadt, Austria

Wiener Neustadt East Airport

latitude: 47-50-36N, longitude: 016-15-29E, elevation: 272 m

Current weather observation

The report was made 5 hours and 1 minutes ago, at 16:00 UTC
Wind 5 kt from the East
Temperature
Pressure

METAR: LOAN 201600Z 09005KT 35KM SCT045SC BKN100AC

Time: 22:01 (21:01 UTC)

Forecast

The report was made 7 hours and 37 minutes ago, at 13:24 UTC
Forecast valid from 20 at 13 UTC to 20 at 21 UTC
Wind 8 kt from the East/Southeast
Visibility 10 km or more
Scattered clouds at a height of 4000 ft
Scattered clouds at a height of 30000 ft
Temporary
from 20 at 13 UTC to 20 at 15 UTC
Visibility: 4000 m
Few clouds at a height of 500 ft
Broken clouds at a height of 2000 ft
light snow showers

TAF: LOAN 201324Z 2013/2021 12008KT 9999 SCT040 SCT300 TEMPO 2013/2015 4000 -SHSN FEW005 BKN020

Weather observations and forecasts of more than 4000 airports (METAR and TAF reports).

The available stations are represented by yellow and red dots on the map.

Hover mouse over dot to see the name of the station.

Then click to see weather observations and forecasts.

To change the map : click on the green buttons with a black cross to zoom in, on the green button with a dash to zoom out, or on the green arrows for adjacent maps.


METAR-TAF: